createdAt,value
2018-04-23T00:00:52.138Z,62.40
2018-04-23T00:03:19.731Z,62.40
2018-04-23T00:05:48.123Z,62.30
2018-04-23T00:08:15.712Z,62.30
2018-04-23T00:10:43.578Z,62.40
2018-04-23T00:13:11.168Z,62.50
2018-04-23T00:15:38.796Z,62.10
2018-04-23T00:18:06.396Z,62.00
2018-04-23T00:20:33.987Z,62.10
2018-04-23T00:23:02.424Z,62.10
2018-04-23T00:25:30.014Z,62.00
2018-04-23T00:27:58.406Z,61.70
2018-04-23T00:30:25.994Z,61.60
2018-04-23T00:32:53.590Z,61.50
2018-04-23T00:35:21.222Z,61.20
2018-04-23T00:37:48.846Z,61.00
2018-04-23T00:40:17.205Z,60.80
2018-04-23T00:42:44.830Z,60.70
2018-04-23T00:45:12.455Z,60.50
2018-04-23T00:47:40.811Z,59.80
2018-04-23T00:50:08.451Z,59.80
2018-04-23T00:52:36.055Z,59.60
2018-04-23T00:55:04.408Z,59.10
2018-04-23T00:57:32.056Z,59.00
2018-04-23T00:59:59.692Z,59.00
2018-04-23T01:02:27.282Z,59.20
2018-04-23T01:04:54.908Z,59.10
2018-04-23T01:07:22.499Z,59.10
2018-04-23T01:09:50.122Z,59.20
2018-04-23T01:12:17.731Z,59.50
2018-04-23T01:14:45.358Z,59.60
2018-04-23T01:17:12.947Z,59.80
2018-04-23T01:19:40.570Z,60.00
2018-04-23T01:22:08.154Z,59.70
2018-04-23T01:24:35.743Z,59.60
2018-04-23T01:27:03.371Z,59.60
2018-04-23T01:29:30.964Z,59.60
2018-04-23T01:31:58.700Z,59.50
2018-04-23T01:34:26.291Z,59.40
2018-04-23T01:36:53.911Z,59.30
2018-04-23T01:39:21.499Z,58.90
2018-04-23T01:41:49.118Z,58.80
2018-04-23T01:44:16.707Z,58.60
2018-04-23T01:46:44.352Z,58.30
2018-04-23T01:49:11.942Z,58.20
2018-04-23T01:51:39.530Z,58.30
2018-04-23T01:54:07.150Z,58.50
2018-04-23T01:56:34.738Z,58.70
2018-04-23T01:59:02.383Z,59.00
2018-04-23T02:01:29.966Z,59.60
2018-04-23T02:03:57.587Z,60.10
2018-04-23T02:06:25.186Z,60.50
2018-04-23T02:08:52.775Z,60.90
2018-04-23T02:11:21.167Z,61.00
2018-04-23T02:13:48.759Z,61.00
2018-04-23T02:16:16.383Z,60.90
2018-04-23T02:18:44.739Z,61.10
2018-04-23T02:21:12.359Z,61.10
2018-04-23T02:23:39.942Z,61.30
2018-04-23T02:26:07.583Z,61.20
2018-04-23T02:28:35.173Z,61.10
2018-04-23T02:31:02.778Z,61.00
2018-04-23T02:33:30.475Z,60.90
2018-04-23T02:35:58.063Z,60.80
2018-04-23T02:38:25.694Z,60.70
2018-04-23T02:40:53.279Z,60.60
2018-04-23T02:43:20.904Z,60.50
2018-04-23T02:45:48.679Z,60.50
2018-04-23T02:48:16.297Z,60.50
2018-04-23T02:50:44.724Z,60.80
2018-04-23T02:53:12.307Z,60.70
2018-04-23T02:55:39.931Z,60.70
2018-04-23T02:58:07.523Z,60.80
2018-04-23T03:00:35.150Z,60.80
2018-04-23T03:03:02.741Z,61.00
2018-04-23T03:05:30.375Z,61.00
2018-04-23T03:07:58.042Z,60.90
2018-04-23T03:10:25.630Z,61.20
2018-04-23T03:12:53.260Z,61.40
2018-04-23T03:15:20.846Z,61.70
2018-04-23T03:17:48.467Z,61.80
2018-04-23T03:20:16.460Z,61.80
2018-04-23T03:22:44.121Z,61.70
2018-04-23T03:25:11.746Z,61.70
2018-04-23T03:27:39.340Z,61.40
2018-04-23T03:30:06.992Z,61.40
2018-04-23T03:32:34.582Z,61.50
2018-04-23T03:35:02.218Z,61.40
2018-04-23T03:37:29.843Z,61.30
2018-04-23T03:39:58.210Z,61.30
2018-04-23T03:42:35.638Z,61.30
2018-04-23T03:45:03.256Z,62.00
2018-04-23T03:47:31.658Z,62.10
2018-04-23T03:50:00.015Z,61.80
2018-04-23T03:52:27.635Z,61.60
2018-04-23T03:54:55.218Z,61.50
2018-04-23T03:57:22.845Z,61.50
2018-04-23T03:59:50.435Z,61.50
2018-04-23T04:02:18.056Z,61.70
2018-04-23T04:04:45.651Z,61.70
2018-04-23T04:07:14.127Z,62.40
2018-04-23T04:09:41.755Z,62.20
2018-04-23T04:15:23.828Z,62.90
2018-04-23T04:21:04.119Z,63.90
2018-04-23T04:23:31.713Z,63.90
2018-04-23T04:26:00.107Z,64.00
2018-04-23T04:28:27.701Z,64.00
2018-04-23T04:30:55.307Z,64.00
2018-04-23T04:33:23.698Z,64.10
2018-04-23T04:35:51.295Z,64.10
2018-04-23T04:38:18.976Z,64.10
2018-04-23T04:40:46.549Z,64.00
2018-04-23T04:43:14.178Z,63.90
2018-04-23T04:45:41.764Z,63.70
2018-04-23T04:48:09.395Z,63.70
2018-04-23T04:50:36.988Z,63.40
2018-04-23T04:53:04.627Z,63.20
2018-04-23T04:55:32.254Z,63.10
2018-04-23T04:57:59.874Z,62.90
2018-04-23T05:00:27.514Z,62.80
2018-04-23T05:02:55.106Z,62.80
2018-04-23T05:05:22.702Z,62.60
2018-04-23T05:07:50.344Z,62.50
2018-04-23T05:10:18.734Z,62.50
2018-04-23T05:12:47.110Z,62.50
2018-04-23T05:15:15.508Z,62.50
2018-04-23T05:17:43.103Z,62.50
2018-04-23T05:20:10.687Z,62.40
2018-04-23T05:22:38.311Z,62.40
2018-04-23T05:25:05.906Z,62.20
2018-04-23T05:27:33.546Z,62.00
2018-04-23T05:30:01.182Z,62.00
2018-04-23T05:32:29.523Z,62.00
2018-04-23T05:34:57.147Z,62.00
2018-04-23T05:37:24.787Z,62.10
2018-04-23T05:39:52.378Z,62.10
2018-04-23T05:42:19.980Z,62.10
2018-04-23T05:44:48.373Z,62.20
2018-04-23T05:47:15.966Z,62.20
2018-04-23T05:49:43.619Z,62.20
2018-04-23T05:52:11.211Z,62.20
2018-04-23T05:54:38.796Z,62.40
2018-04-23T05:57:06.421Z,63.30
2018-04-23T05:59:34.006Z,62.50
2018-04-23T06:02:01.646Z,62.40
2018-04-23T06:04:29.227Z,62.40
2018-04-23T06:06:56.863Z,62.30
2018-04-23T06:09:24.455Z,62.40
2018-04-23T06:11:52.047Z,62.40
2018-04-23T06:14:19.725Z,62.40
2018-04-23T06:16:48.050Z,62.50
2018-04-23T06:19:15.641Z,62.50
2018-04-23T06:21:44.043Z,62.50
2018-04-23T06:24:11.666Z,62.50
2018-04-23T06:26:39.290Z,62.60
2018-04-23T06:29:06.911Z,62.60
2018-04-23T06:31:34.503Z,63.50
2018-04-23T06:34:02.130Z,62.70
2018-04-23T06:36:30.487Z,62.60
2018-04-23T06:38:58.114Z,62.50
2018-04-23T06:41:25.697Z,62.60
2018-04-23T06:43:53.331Z,62.50
2018-04-23T06:46:20.942Z,62.40
2018-04-23T06:48:49.356Z,62.30
2018-04-23T06:51:16.990Z,62.30
2018-04-23T06:53:45.348Z,62.30
2018-04-23T06:56:12.983Z,62.30
2018-04-23T06:58:40.588Z,62.40
2018-04-23T07:01:08.984Z,62.30
2018-04-23T07:03:36.615Z,62.20
2018-04-23T07:06:04.220Z,62.30
2018-04-23T07:08:31.851Z,62.20
2018-04-23T07:10:59.531Z,62.20
2018-04-23T07:13:27.173Z,62.10
2018-04-23T07:15:54.758Z,62.10
2018-04-23T07:18:22.395Z,62.10
2018-04-23T07:20:50.010Z,63.00
2018-04-23T07:23:17.667Z,62.20
2018-04-23T07:25:45.262Z,62.00
2018-04-23T07:28:12.883Z,62.00
2018-04-23T07:30:40.519Z,61.90
2018-04-23T07:33:08.106Z,61.80
2018-04-23T07:35:35.759Z,61.70
2018-04-23T07:38:03.367Z,61.70
2018-04-23T07:40:31.828Z,61.30
2018-04-23T07:43:00.277Z,62.20
2018-04-23T07:45:27.925Z,61.20
2018-04-23T07:47:55.539Z,59.60
2018-04-23T07:50:23.939Z,59.90
2018-04-23T07:52:51.632Z,59.90
2018-04-23T07:55:19.602Z,59.00
2018-04-23T07:57:48.011Z,58.70
2018-04-23T08:00:15.642Z,58.70
2018-04-23T08:02:43.375Z,58.20
2018-04-23T08:05:10.969Z,58.00
2018-04-23T08:07:38.639Z,58.30
2018-04-23T08:10:06.268Z,58.70
2018-04-23T08:12:33.894Z,59.00
2018-04-23T08:15:01.483Z,59.20
2018-04-23T08:17:29.240Z,59.50
2018-04-23T08:19:57.512Z,59.30
2018-04-23T08:22:27.501Z,59.70
2018-04-23T08:24:55.256Z,59.70
2018-04-23T08:27:22.955Z,60.00
2018-04-23T08:29:50.878Z,60.00
2018-04-23T08:32:18.774Z,59.80
2018-04-23T08:34:47.081Z,59.50
2018-04-23T08:37:14.841Z,59.40
2018-04-23T08:39:42.710Z,59.50
2018-04-23T08:42:16.642Z,59.60
2018-04-23T08:44:45.559Z,59.30
2018-04-23T08:47:14.186Z,58.70
2018-04-23T08:49:42.060Z,58.70
2018-04-23T08:52:11.871Z,58.30
2018-04-23T08:54:39.640Z,58.30
2018-04-23T08:57:07.499Z,58.40
2018-04-23T08:59:38.304Z,58.60
2018-04-23T09:02:06.189Z,58.90
2018-04-23T09:04:33.779Z,59.10
2018-04-23T09:07:01.749Z,59.10
2018-04-23T09:09:29.377Z,59.10
2018-04-23T09:11:57.010Z,58.90
2018-04-23T09:14:25.455Z,59.00
2018-04-23T09:16:53.203Z,58.90
2018-04-23T09:19:20.837Z,59.20
2018-04-23T09:21:48.552Z,59.30
2018-04-23T09:24:16.198Z,59.60
2018-04-23T09:26:57.984Z,59.80
2018-04-23T09:29:25.663Z,60.00
2018-04-23T09:31:53.431Z,58.20
2018-04-23T09:34:21.067Z,58.40
2018-04-23T09:36:48.666Z,57.20
2018-04-23T09:39:17.411Z,58.20
2018-04-23T09:41:45.127Z,56.90
2018-04-23T09:44:13.071Z,56.50
2018-04-23T09:46:42.471Z,56.40
2018-04-23T09:49:12.534Z,57.50
2018-04-23T09:51:41.127Z,58.00
2018-04-23T09:54:10.682Z,57.40
2018-04-23T09:56:38.507Z,57.30
2018-04-23T09:59:06.999Z,56.10
2018-04-23T10:01:34.691Z,56.10
2018-04-23T10:04:06.271Z,56.60
2018-04-23T10:06:35.853Z,56.90
2018-04-23T10:09:03.494Z,56.90
2018-04-23T10:11:31.171Z,56.80
2018-04-23T10:13:58.798Z,59.80
2018-04-23T10:16:27.167Z,64.80
2018-04-23T10:18:55.560Z,62.90
2018-04-23T10:21:23.151Z,62.90
2018-04-23T10:23:50.779Z,64.60
2018-04-23T10:26:18.409Z,63.70
2018-04-23T10:28:46.816Z,65.00
2018-04-23T10:31:14.411Z,64.90
2018-04-23T10:33:41.999Z,64.60
2018-04-23T10:36:09.658Z,65.70
2018-04-23T10:38:37.256Z,66.80
2018-04-23T10:41:04.884Z,67.20
2018-04-23T10:43:33.315Z,68.20
2018-04-23T10:46:00.991Z,68.20
2018-04-23T10:48:28.623Z,66.90
2018-04-23T10:50:56.249Z,64.70
2018-04-23T10:53:23.854Z,65.90
2018-04-23T10:55:51.447Z,67.00
2018-04-23T10:58:19.072Z,67.20
2018-04-23T11:00:46.683Z,66.60
2018-04-23T11:03:14.331Z,61.80
2018-04-23T11:05:42.080Z,59.90
2018-04-23T11:08:09.738Z,63.00
2018-04-23T11:10:37.345Z,63.80
2018-04-23T11:13:07.315Z,64.40
2018-04-23T11:15:35.123Z,60.40
2018-04-23T11:18:02.904Z,58.20
2018-04-23T11:20:30.999Z,58.10
2018-04-23T11:22:58.586Z,59.10
2018-04-23T11:25:27.035Z,62.50
2018-04-23T11:27:54.699Z,62.50
2018-04-23T11:30:22.319Z,63.40
2018-04-23T11:32:49.947Z,61.10
2018-04-23T11:35:18.335Z,60.90
2018-04-23T11:37:46.872Z,59.60
2018-04-23T11:40:14.518Z,59.40
2018-04-23T11:42:42.218Z,60.10
2018-04-23T11:45:09.895Z,61.90
2018-04-23T11:47:37.515Z,62.70
2018-04-23T11:50:05.182Z,61.80
2018-04-23T11:52:32.902Z,60.20
2018-04-23T11:55:00.538Z,58.70
2018-04-23T11:57:28.136Z,57.40
2018-04-23T11:59:55.758Z,55.30
2018-04-23T12:02:23.900Z,55.60
2018-04-23T12:04:51.760Z,55.30
2018-04-23T12:07:20.183Z,55.00
2018-04-23T12:09:47.819Z,55.00
2018-04-23T12:12:15.459Z,55.50
2018-04-23T12:14:43.134Z,57.10
2018-04-23T12:17:10.733Z,58.00
2018-04-23T12:19:38.371Z,58.40
2018-04-23T12:22:05.986Z,59.20
2018-04-23T12:24:33.648Z,59.10
2018-04-23T12:27:01.280Z,59.60
2018-04-23T12:29:28.907Z,60.20
2018-04-23T12:31:57.310Z,61.90
2018-04-23T12:34:24.935Z,61.90
2018-04-23T12:36:53.323Z,63.50
2018-04-23T12:39:21.675Z,65.60
2018-04-23T12:41:49.306Z,65.60
2018-04-23T12:44:16.891Z,67.10
2018-04-23T12:46:44.487Z,68.40
2018-04-23T12:49:12.891Z,70.30
2018-04-23T12:51:40.500Z,70.30
2018-04-23T12:54:08.230Z,71.10
2018-04-23T12:56:35.929Z,71.80
2018-04-23T12:59:03.580Z,72.20
2018-04-23T13:01:31.175Z,72.60
2018-04-23T13:03:59.548Z,73.40
2018-04-23T13:06:28.070Z,73.80
2018-04-23T13:08:55.672Z,73.70
2018-04-23T13:11:23.270Z,74.10
2018-04-23T13:13:50.890Z,74.10
2018-04-23T13:16:18.531Z,73.10
2018-04-23T13:18:46.327Z,70.20
2018-04-23T13:21:13.950Z,69.80
2018-04-23T13:23:41.575Z,71.50
2018-04-23T13:26:09.966Z,69.90
2018-04-23T13:28:37.552Z,69.80
2018-04-23T13:31:05.218Z,70.60
2018-04-23T13:33:32.876Z,71.40
2018-04-23T13:36:00.498Z,70.80
2018-04-23T13:38:28.147Z,73.10
2018-04-23T13:40:55.795Z,77.80
2018-04-23T13:43:23.447Z,79.60
2018-04-23T13:45:51.072Z,80.80
2018-04-23T13:48:19.427Z,83.50
2018-04-23T13:50:47.103Z,83.50
2018-04-23T13:53:14.877Z,84.90
2018-04-23T13:55:42.527Z,84.90
2018-04-23T13:58:10.507Z,86.30
2018-04-23T14:00:38.108Z,88.00
2018-04-23T14:03:05.749Z,89.00
2018-04-23T14:05:34.234Z,89.80
2018-04-23T14:08:01.812Z,89.50
2018-04-23T14:10:29.467Z,90.30
2018-04-23T14:12:57.091Z,90.60
2018-04-23T14:15:25.490Z,91.90
2018-04-23T14:17:53.082Z,91.90
2018-04-23T14:20:20.672Z,92.50
2018-04-23T14:22:48.516Z,93.40
2018-04-23T14:25:16.112Z,93.80
2018-04-23T14:27:43.792Z,93.60
2018-04-23T14:30:11.603Z,93.50
2018-04-23T14:32:39.224Z,93.60
2018-04-23T14:35:07.640Z,94.30
2018-04-23T14:37:35.309Z,94.30
2018-04-23T14:40:02.935Z,94.50
2018-04-23T14:42:32.028Z,94.70
2018-04-23T14:44:59.655Z,94.80
2018-04-23T14:47:27.246Z,94.80
2018-04-23T14:49:55.678Z,94.80
2018-04-23T14:52:23.316Z,94.80
2018-04-23T14:54:50.957Z,94.80
2018-04-23T14:57:18.633Z,95.10
2018-04-23T14:59:46.351Z,94.90
2018-04-23T15:02:13.946Z,94.60
2018-04-23T15:04:41.539Z,94.70
2018-04-23T15:07:09.171Z,94.80
2018-04-23T15:09:36.764Z,94.70
2018-04-23T15:12:04.467Z,94.50
2018-04-23T15:14:32.060Z,94.60
2018-04-23T15:16:59.692Z,94.60
2018-04-23T15:19:27.283Z,94.00
2018-04-23T15:21:55.012Z,92.80
2018-04-23T15:24:22.735Z,92.20
2018-04-23T15:26:51.113Z,92.20
2018-04-23T15:29:18.807Z,92.20
2018-04-23T15:31:46.429Z,92.70
2018-04-23T15:34:14.094Z,92.10
2018-04-23T15:36:41.827Z,93.10
2018-04-23T15:39:09.477Z,92.90
2018-04-23T15:41:37.068Z,93.50
2018-04-23T15:44:04.771Z,93.70
2018-04-23T15:46:32.558Z,93.40
2018-04-23T15:49:00.232Z,93.10
2018-04-23T15:51:33.580Z,91.30
2018-04-23T15:54:01.246Z,87.90
2018-04-23T15:56:28.862Z,87.30
2018-04-23T15:58:57.159Z,86.60
2018-04-23T16:01:24.830Z,87.80
2018-04-23T16:03:53.270Z,89.30
2018-04-23T16:06:20.900Z,89.20
2018-04-23T16:08:48.518Z,90.80
2018-04-23T16:11:16.119Z,91.70
2018-04-23T16:13:43.763Z,91.80
2018-04-23T16:16:12.155Z,91.40
2018-04-23T16:18:40.510Z,90.30
2018-04-23T16:21:08.902Z,89.90
2018-04-23T16:23:37.351Z,89.60
2018-04-23T16:26:05.019Z,89.60
2018-04-23T16:28:32.645Z,89.50
2018-04-23T16:31:00.325Z,89.40
2018-04-23T16:33:27.920Z,88.70
2018-04-23T16:35:56.407Z,88.50
2018-04-23T16:38:24.876Z,88.90
2018-04-23T16:40:52.490Z,88.80
2018-04-23T16:43:20.147Z,88.80
2018-04-23T16:45:47.778Z,87.70
2018-04-23T16:48:16.426Z,85.80
2018-04-23T16:50:44.096Z,85.80
2018-04-23T16:53:11.739Z,85.30
2018-04-23T16:55:39.343Z,84.70
2018-04-23T16:58:06.998Z,84.20
2018-04-23T17:00:34.601Z,84.00
2018-04-23T17:03:02.223Z,84.30
2018-04-23T17:05:29.871Z,83.20
2018-04-23T17:07:57.469Z,82.90
2018-04-23T17:10:25.106Z,80.40
2018-04-23T17:12:52.743Z,79.00
2018-04-23T17:15:20.334Z,78.50
2018-04-23T17:17:47.975Z,79.10
2018-04-23T17:20:15.587Z,79.30
2018-04-23T17:22:43.943Z,77.50
2018-04-23T17:25:11.562Z,77.40
2018-04-23T17:27:39.209Z,76.80
2018-04-23T17:30:06.862Z,77.20
2018-04-23T17:32:35.083Z,76.40
2018-04-23T17:35:03.510Z,76.60
2018-04-23T17:37:31.244Z,76.00
2018-04-23T17:39:58.905Z,76.20
2018-04-23T17:42:26.530Z,76.10
2018-04-23T17:44:54.922Z,76.40
2018-04-23T17:47:23.331Z,75.40
2018-04-23T17:49:50.973Z,75.20
2018-04-23T17:52:18.614Z,75.40
2018-04-23T17:54:46.226Z,76.10
2018-04-23T17:57:13.859Z,75.60
2018-04-23T17:59:41.452Z,75.40
2018-04-23T18:02:09.088Z,75.70
2018-04-23T18:04:36.690Z,75.50
2018-04-23T18:07:04.408Z,75.30
2018-04-23T18:09:32.042Z,74.90
2018-04-23T18:11:59.634Z,75.10
2018-04-23T18:14:27.312Z,75.30
2018-04-23T18:16:54.919Z,74.60
2018-04-23T18:19:22.551Z,74.60
2018-04-23T18:21:50.143Z,74.60
2018-04-23T18:24:17.771Z,74.10
2018-04-23T18:26:45.389Z,74.70
2018-04-23T18:29:13.045Z,74.80
2018-04-23T18:31:40.659Z,74.70
2018-04-23T18:34:08.290Z,75.10
2018-04-23T18:36:35.971Z,76.20
2018-04-23T18:39:03.626Z,77.80
2018-04-23T18:41:31.245Z,80.10
2018-04-23T18:43:58.830Z,80.20
2018-04-23T18:46:27.249Z,81.60
2018-04-23T18:48:54.848Z,81.50
2018-04-23T18:51:23.223Z,81.10
2018-04-23T18:53:51.623Z,81.20
2018-04-23T18:56:19.214Z,81.20
2018-04-23T18:58:46.828Z,81.50
2018-04-23T19:01:15.262Z,81.50
2018-04-23T19:03:42.914Z,81.50
2018-04-23T19:06:10.518Z,81.40
2018-04-23T19:08:39.568Z,83.40
2018-04-23T19:11:07.211Z,83.40
2018-04-23T19:13:34.819Z,83.80
2018-04-23T19:16:02.494Z,83.80
2018-04-23T19:18:30.096Z,83.70
2018-04-23T19:20:57.722Z,82.90
2018-04-23T19:23:26.086Z,83.40
2018-04-23T19:25:54.445Z,83.20
2018-04-23T19:28:22.095Z,83.10
2018-04-23T19:30:49.726Z,83.40
2018-04-23T19:33:17.404Z,84.20
2018-04-23T19:35:45.054Z,84.70
2018-04-23T19:38:12.646Z,85.10
2018-04-23T19:40:40.231Z,85.50
2018-04-23T19:43:07.855Z,85.90
2018-04-23T19:45:35.459Z,85.80
2018-04-23T19:48:03.867Z,86.10
2018-04-23T19:50:31.467Z,86.20
2018-04-23T19:52:59.061Z,86.20
2018-04-23T19:55:27.648Z,86.60
2018-04-23T19:57:55.327Z,87.30
2018-04-23T20:00:22.972Z,87.40
2018-04-23T20:03:03.728Z,87.80
2018-04-23T20:05:35.105Z,88.10
2018-04-23T20:08:02.733Z,88.20
2018-04-23T20:10:30.409Z,88.30
2018-04-23T20:12:57.995Z,88.40
2018-04-23T20:15:26.399Z,88.60
2018-04-23T20:17:54.002Z,88.50
2018-04-23T20:20:22.359Z,88.80
2018-04-23T20:22:49.991Z,88.80
2018-04-23T20:25:17.583Z,88.70
2018-04-23T20:27:45.977Z,88.90
2018-04-23T20:30:13.562Z,88.80
2018-04-23T20:32:41.208Z,88.80
2018-04-23T20:35:08.800Z,88.70
2018-04-23T20:37:37.208Z,88.80
2018-04-23T20:40:04.818Z,88.30
2018-04-23T20:42:32.410Z,88.20
2018-04-23T20:45:00.795Z,87.80
2018-04-23T20:47:28.381Z,87.80
2018-04-23T20:49:56.003Z,87.60
2018-04-23T20:52:24.358Z,87.30
2018-04-23T20:54:51.988Z,87.10
2018-04-23T20:57:19.574Z,87.10
2018-04-23T20:59:47.199Z,87.40
2018-04-23T21:02:14.823Z,87.20
2018-04-23T21:04:43.215Z,86.80
2018-04-23T21:07:11.627Z,86.20
2018-04-23T21:09:39.255Z,86.00
2018-04-23T21:12:06.911Z,85.60
2018-04-23T21:14:35.343Z,84.60
2018-04-23T21:17:02.995Z,84.60
2018-04-23T21:19:30.651Z,84.30
2018-04-23T21:21:59.007Z,84.30
2018-04-23T21:24:27.368Z,84.20
2018-04-23T21:26:55.786Z,84.90
2018-04-23T21:29:23.381Z,84.30
2018-04-23T21:31:51.019Z,84.20
2018-04-23T21:34:18.647Z,84.10
2018-04-23T21:36:47.002Z,83.80
2018-04-23T21:39:14.651Z,83.80
2018-04-23T21:41:42.252Z,83.50
2018-04-23T21:44:10.607Z,82.90
2018-04-23T21:46:38.235Z,82.90
2018-04-23T21:49:05.823Z,82.10
2018-04-23T21:51:33.451Z,82.20
2018-04-23T21:54:01.079Z,82.30
2018-04-23T21:56:29.442Z,82.20
2018-04-23T21:58:57.790Z,83.10
2018-04-23T22:01:25.425Z,82.20
2018-04-23T22:03:53.443Z,82.20
2018-04-23T22:06:21.175Z,82.10
2018-04-23T22:08:48.766Z,82.10
2018-04-23T22:11:16.398Z,82.10
2018-04-23T22:13:43.982Z,81.90
2018-04-23T22:16:11.569Z,82.20
2018-04-23T22:18:40.438Z,82.20
2018-04-23T22:21:08.058Z,82.20
2018-04-23T22:23:35.682Z,82.30
2018-04-23T22:26:04.110Z,82.10
2018-04-23T22:28:31.735Z,82.00
2018-04-23T22:31:00.147Z,82.40
2018-04-23T22:33:27.755Z,82.40
2018-04-23T22:35:55.351Z,82.30
2018-04-23T22:38:22.983Z,83.30
2018-04-23T22:40:51.339Z,82.90
2018-04-23T22:43:18.971Z,82.30
2018-04-23T22:45:47.323Z,82.30
2018-04-23T22:48:14.911Z,82.30
2018-04-23T22:50:43.294Z,82.40
2018-04-23T22:53:11.644Z,82.60
2018-04-23T22:55:39.271Z,82.50
2018-04-23T22:58:06.894Z,82.50
2018-04-23T23:00:35.283Z,82.50
2018-04-23T23:03:03.670Z,82.40
2018-04-23T23:05:31.294Z,82.40
2018-04-23T23:07:58.889Z,82.40
2018-04-23T23:10:27.291Z,82.30
2018-04-23T23:12:54.882Z,82.20
2018-04-23T23:15:23.287Z,82.30
2018-04-23T23:17:50.910Z,82.10
2018-04-23T23:20:18.640Z,82.10
2018-04-23T23:22:46.227Z,82.30
2018-04-23T23:25:13.811Z,82.40
2018-04-23T23:27:42.202Z,82.40
2018-04-23T23:30:10.556Z,82.10
2018-04-23T23:32:38.179Z,82.10
2018-04-23T23:35:05.810Z,82.20
2018-04-23T23:37:34.195Z,82.30
2018-04-23T23:40:01.783Z,82.30
2018-04-23T23:42:29.366Z,82.40
2018-04-23T23:44:57.014Z,82.40
2018-04-23T23:47:24.602Z,82.50
2018-04-23T23:49:52.227Z,82.60
2018-04-23T23:52:19.899Z,82.60
2018-04-23T23:54:47.522Z,82.50
2018-04-23T23:57:15.118Z,82.60
2018-04-23T23:59:42.843Z,82.70
